Time;durP1;ratioP1;P1;durP2;ratioP2;P2;SDS_P1;SDS_P2;PMS_P1;PMS_P2;Temp;Humidity;BMP_temperature;BMP_pressure;BME280_temperature;BME280_humidity;BME280_pressure;Samples;Min_cycle;Max_cycle;Signal;HPM_P1;HPM_P2
2021/11/06 00:01:14;;;;;;;7.23;3.43;;;;;;;8.00;94.00;97406.66;5037394;28;20198;-66
2021/11/06 00:03:40;;;;;;;6.17;3.67;;;;;;;7.87;93.94;97403.44;5037564;28;20222;-67
2021/11/06 00:06:07;;;;;;;4.57;3.33;;;;;;;7.74;94.65;97399.38;5037102;28;20211;-68
2021/11/06 00:08:34;;;;;;;5.33;3.00;;;;;;;8.09;95.31;97394.53;5037431;28;20237;-67
2021/11/06 00:11:01;;;;;;;9.90;2.90;;;;;;;7.84;95.47;97402.91;5037240;28;20287;-68
2021/11/06 00:13:28;;;;;;;6.03;2.37;;;;;;;7.77;95.48;97407.00;5037600;28;20202;-67
2021/11/06 00:15:54;;;;;;;3.80;2.70;;;;;;;7.66;95.68;97408.88;5037067;28;20917;-67
2021/11/06 00:18:21;;;;;;;5.07;2.87;;;;;;;7.80;95.17;97404.09;5037262;28;20236;-67
2021/11/06 00:20:47;;;;;;;3.27;2.17;;;;;;;7.86;94.86;97400.94;5037114;28;20568;-66
2021/11/06 00:23:14;;;;;;;5.40;3.17;;;;;;;7.85;94.79;97409.78;5037215;28;20201;-68
2021/11/06 00:25:42;;;;;;;3.13;2.37;;;;;;;8.09;94.55;97402.41;5037579;28;20342;-68
2021/11/06 00:28:09;;;;;;;17.03;2.60;;;;;;;7.76;94.74;97409.75;5037110;28;20221;-67
2021/11/06 00:30:36;;;;;;;9.67;3.20;;;;;;;7.85;94.68;97407.16;5037345;28;20208;-68
2021/11/06 00:33:02;;;;;;;2.40;1.57;;;;;;;7.80;94.33;97401.47;5036830;28;20208;-68
2021/11/06 00:35:29;;;;;;;3.60;3.07;;;;;;;7.55;95.24;97401.91;5036785;28;20201;-66
2021/11/06 00:37:56;;;;;;;6.73;2.57;;;;;;;7.75;95.47;97405.47;5036884;28;20232;-67
2021/11/06 00:40:22;;;;;;;6.03;3.47;;;;;;;7.61;95.62;97406.66;5036363;28;20212;-67
2021/11/06 00:42:50;;;;;;;3.63;2.47;;;;;;;7.91;94.81;97406.63;5037048;28;20220;-67
2021/11/06 00:45:16;;;;;;;9.63;2.20;;;;;;;7.64;95.22;97405.56;5033709;28;20201;-66
2021/11/06 00:47:43;;;;;;;1.77;1.63;;;;;;;7.52;95.33;97406.59;5035643;28;20220;-67
2021/11/06 00:50:15;;;;;;;2.90;2.27;;;;;;;7.77;95.96;97401.75;5036865;28;20216;-67
2021/11/06 00:52:42;;;;;;;4.03;1.53;;;;;;;7.67;95.35;97410.53;5036939;28;20216;-67
2021/11/06 00:55:09;;;;;;;4.60;2.97;;;;;;;7.77;94.61;97407.00;5036296;28;20216;-67
2021/11/06 00:57:35;;;;;;;6.03;3.30;;;;;;;7.75;94.99;97410.69;5036228;28;20221;-65
2021/11/06 01:00:05;;;;;;;4.07;1.97;;;;;;;7.87;95.33;97405.25;5036972;28;20212;-66
2021/11/06 01:02:31;;;;;;;4.67;2.43;;;;;;;7.63;95.22;97409.97;5036073;28;20232;-68
2021/11/06 01:04:58;;;;;;;5.57;2.27;;;;;;;7.60;95.10;97412.84;5036538;28;20198;-67
2021/11/06 01:07:24;;;;;;;5.97;3.30;;;;;;;7.74;94.71;97412.50;5036102;28;20221;-66
2021/11/06 01:09:51;;;;;;;6.80;3.20;;;;;;;7.51;95.27;97416.25;5036456;28;20694;-67
2021/11/06 01:12:17;;;;;;;3.80;2.13;;;;;;;7.58;95.06;97412.13;5036494;28;20221;-68
2021/11/06 01:14:44;;;;;;;4.83;2.20;;;;;;;7.71;94.63;97420.63;5036229;28;20553;-67
2021/11/06 01:17:12;;;;;;;4.23;2.40;;;;;;;7.80;95.64;97419.00;5035625;28;20197;-68
2021/11/06 01:19:38;;;;;;;3.07;2.10;;;;;;;7.68;94.33;97423.53;5036426;28;20218;-66
2021/11/06 01:22:05;;;;;;;2.03;1.83;;;;;;;7.72;94.38;97419.66;5036210;28;20580;-68
2021/11/06 01:24:31;;;;;;;4.03;2.77;;;;;;;7.76;94.44;97415.81;5036500;28;20200;-68
2021/11/06 01:26:58;;;;;;;6.80;3.03;;;;;;;7.80;93.63;97425.09;5035769;28;20197;-67
2021/11/06 01:29:24;;;;;;;4.87;3.20;;;;;;;7.78;93.41;97413.91;5036501;28;20197;-68
2021/11/06 01:31:51;;;;;;;7.10;2.77;;;;;;;7.69;94.08;97416.47;5036506;28;20209;-67
2021/11/06 01:34:19;;;;;;;6.53;3.10;;;;;;;8.04;93.84;97421.19;5036419;28;20208;-68
2021/11/06 01:36:46;;;;;;;2.83;2.07;;;;;;;7.89;93.38;97412.03;5035462;28;20207;-68
2021/11/06 01:39:12;;;;;;;3.77;2.60;;;;;;;7.76;93.47;97409.75;5036626;28;20225;-67
2021/11/06 01:41:39;;;;;;;4.50;2.43;;;;;;;7.86;92.64;97408.81;5036115;28;20201;-67
2021/11/06 01:44:05;;;;;;;4.03;2.13;;;;;;;7.73;93.30;97405.59;5032682;28;20208;-66
2021/11/06 01:46:33;;;;;;;3.43;2.57;;;;;;;7.91;93.42;97398.75;5035426;28;20202;-68
2021/11/06 01:48:59;;;;;;;2.87;1.70;;;;;;;7.67;93.31;97400.84;5036161;28;20913;-66
2021/11/06 01:51:29;;;;;;;9.27;3.23;;;;;;;7.59;94.72;97403.31;5036275;28;21130;-66
2021/11/06 01:53:55;;;;;;;9.30;3.03;;;;;;;7.57;93.22;97397.34;5038754;28;20216;-67
2021/11/06 01:56:22;;;;;;;5.80;2.43;;;;;;;7.51;93.04;97405.75;5039433;28;20209;-66
2021/11/06 01:58:48;;;;;;;14.90;2.63;;;;;;;7.52;92.56;97404.81;5039887;28;20233;-66
2021/11/06 02:01:15;;;;;;;4.00;2.27;;;;;;;7.58;92.05;97401.66;5040281;28;20213;-70
2021/11/06 02:03:43;;;;;;;2.20;1.80;;;;;;;7.48;91.80;97407.81;5040030;28;20211;-67
2021/11/06 02:06:10;;;;;;;4.53;2.77;;;;;;;7.36;92.70;97406.22;5039272;28;20207;-67
2021/11/06 02:08:37;;;;;;;3.50;2.53;;;;;;;7.41;93.41;97410.13;5039824;28;20217;-69
2021/11/06 02:11:05;;;;;;;2.00;1.47;;;;;;;7.26;92.31;97406.16;5040106;28;20201;-68
2021/11/06 02:13:32;;;;;;;5.37;2.70;;;;;;;7.32;91.33;97410.91;5039573;28;20292;-69
2021/11/06 02:15:58;;;;;;;4.63;2.53;;;;;;;7.27;91.11;97407.00;5038800;28;20197;-68
2021/11/06 02:18:25;;;;;;;4.37;2.00;;;;;;;7.26;90.71;97406.16;5039791;28;20237;-69
2021/11/06 02:21:00;;;;;;;7.20;2.23;;;;;;;7.56;90.37;97407.97;5039708;28;20205;-69
2021/11/06 02:23:27;;;;;;;2.50;2.03;;;;;;;6.73;91.81;97406.34;5038893;28;20304;-68
2021/11/06 02:25:54;;;;;;;3.67;2.47;;;;;;;6.97;90.87;97408.72;5039012;28;20205;-67
2021/11/06 02:28:20;;;;;;;3.07;2.13;;;;;;;7.04;90.86;97412.47;5039352;28;20221;-69
2021/11/06 02:30:47;;;;;;;2.07;1.47;;;;;;;6.95;90.97;97410.63;5039354;28;20205;-69
2021/11/06 02:33:14;;;;;;;5.97;3.37;;;;;;;6.62;92.54;97408.19;5039873;28;20208;-69
2021/11/06 02:35:41;;;;;;;2.67;2.40;;;;;;;6.70;92.03;97411.00;5039075;28;20205;-69
2021/11/06 02:38:11;;;;;;;4.00;2.30;;;;;;;6.89;93.25;97411.16;5039019;28;20228;-68
2021/11/06 02:40:38;;;;;;;5.07;1.70;;;;;;;6.85;92.49;97413.19;5038544;28;20205;-69
2021/11/06 02:43:04;;;;;;;2.50;1.20;;;;;;;6.90;91.68;97412.81;5039715;28;20205;-67
2021/11/06 02:45:31;;;;;;;6.30;1.73;;;;;;;6.97;91.92;97411.34;5035852;28;20610;-69
2021/11/06 02:47:58;;;;;;;3.47;2.53;;;;;;;6.78;92.80;97405.94;5038848;28;20713;-69
2021/11/06 02:50:24;;;;;;;2.80;1.80;;;;;;;6.94;93.42;97411.59;5040027;28;20755;-68
2021/11/06 02:52:51;;;;;;;6.23;2.40;;;;;;;6.93;92.73;97407.31;5039128;28;20673;-69
2021/11/06 02:55:19;;;;;;;2.70;1.87;;;;;;;7.17;92.87;97400.06;5038339;28;20212;-69
2021/11/06 02:57:45;;;;;;;3.70;2.20;;;;;;;6.98;92.52;97402.53;5038462;28;20255;-69
2021/11/06 03:00:13;;;;;;;5.63;2.30;;;;;;;7.27;92.80;97402.59;5039200;28;20698;-68
2021/11/06 03:02:39;;;;;;;3.93;2.00;;;;;;;7.12;93.06;97384.69;5038050;28;20205;-69
2021/11/06 03:05:08;;;;;;;3.53;2.57;;;;;;;7.25;93.99;97389.75;5037577;28;20201;-67
2021/11/06 03:07:35;;;;;;;6.47;3.40;;;;;;;7.18;94.16;97394.66;5037963;28;20220;-69
2021/11/06 03:10:01;;;;;;;5.47;2.23;;;;;;;7.07;95.27;97394.72;5038640;28;20197;-69
2021/11/06 03:12:31;;;;;;;3.07;2.73;;;;;;;7.44;96.66;97401.16;5038737;28;21008;-69
2021/11/06 03:14:57;;;;;;;2.93;1.93;;;;;;;6.89;97.84;97390.19;5038656;28;20205;-69
2021/11/06 03:17:24;;;;;;;4.23;2.30;;;;;;;6.81;98.78;97398.69;5037535;28;20213;-69
2021/11/06 03:19:50;;;;;;;3.37;2.57;;;;;;;6.98;98.32;97394.66;5038860;28;20224;-70
2021/11/06 03:22:17;;;;;;;5.03;2.90;;;;;;;7.11;98.08;97396.13;5038551;28;20212;-67
2021/11/06 03:24:43;;;;;;;3.90;1.53;;;;;;;7.18;98.50;97407.78;5038130;28;20205;-68
2021/11/06 03:27:10;;;;;;;2.87;2.10;;;;;;;7.09;97.95;97405.06;5037436;28;20700;-69
2021/11/06 03:29:38;;;;;;;5.83;3.13;;;;;;;7.30;98.81;97406.75;5038444;28;20197;-69
2021/11/06 03:32:06;;;;;;;7.67;3.17;;;;;;;7.35;98.66;97409.81;5038224;28;20629;-68
2021/11/06 03:34:33;;;;;;;8.93;3.40;;;;;;;6.90;98.97;97407.59;5038223;28;20682;-70
2021/11/06 03:37:00;;;;;;;5.57;2.97;;;;;;;7.06;98.20;97400.09;5032937;28;20202;-68
2021/11/06 03:39:27;;;;;;;2.03;1.70;;;;;;;6.99;97.83;97402.41;5038543;28;20225;-68
2021/11/06 03:41:53;;;;;;;10.03;4.17;;;;;;;6.77;98.16;97406.91;5038263;28;20588;-70
2021/11/06 03:44:20;;;;;;;12.13;3.37;;;;;;;6.93;97.90;97396.84;5035563;28;20208;-69
2021/11/06 03:46:48;;;;;;;5.87;3.57;;;;;;;6.92;97.17;97400.41;5037595;28;20201;-68
2021/11/06 03:49:15;;;;;;;5.00;2.43;;;;;;;6.78;97.12;97401.56;5037829;28;20224;-69
2021/11/06 03:51:42;;;;;;;3.20;2.43;;;;;;;6.38;97.69;97401.47;5037913;28;20219;-69
2021/11/06 03:54:08;;;;;;;4.20;2.23;;;;;;;6.40;97.84;97412.63;5038523;28;20205;-67
2021/11/06 03:56:35;;;;;;;2.50;1.73;;;;;;;6.42;98.89;97408.94;5037312;28;20202;-68
2021/11/06 03:59:02;;;;;;;2.73;2.37;;;;;;;6.69;98.19;97406.69;5036943;28;20232;-69
2021/11/06 04:01:31;;;;;;;4.33;2.97;;;;;;;6.71;97.79;97408.25;5038393;28;20209;-68
2021/11/06 04:03:59;;;;;;;6.03;3.53;;;;;;;6.82;98.17;97415.22;5038128;28;20565;-70
2021/11/06 04:06:26;;;;;;;2.73;1.90;;;;;;;6.72;97.56;97407.28;5037146;28;20259;-68
2021/11/06 04:08:54;;;;;;;5.73;1.73;;;;;;;6.62;97.31;97421.28;5037334;28;20278;-67
2021/11/06 04:11:21;;;;;;;2.20;2.00;;;;;;;6.33;97.63;97416.72;5037994;28;20205;-69
2021/11/06 04:13:48;;;;;;;2.70;1.60;;;;;;;6.61;97.51;97416.97;5037268;28;21267;-68
2021/11/06 04:16:14;;;;;;;6.37;3.73;;;;;;;6.66;96.70;97414.81;5036851;28;20224;-69
2021/11/06 04:18:41;;;;;;;4.30;3.20;;;;;;;6.74;96.05;97418.47;5037300;28;20217;-68
2021/11/06 04:21:09;;;;;;;4.67;3.43;;;;;;;6.71;95.95;97413.47;5037458;28;20731;-68
2021/11/06 04:23:36;;;;;;;7.57;3.23;;;;;;;6.63;96.37;97416.84;5037472;28;20201;-67
2021/11/06 04:26:04;;;;;;;2.90;2.13;;;;;;;6.59;96.81;97416.25;5036777;28;20669;-69
2021/11/06 04:28:30;;;;;;;6.23;2.67;;;;;;;6.27;96.46;97418.00;5036742;28;20225;-67
2021/11/06 04:30:57;;;;;;;4.43;2.70;;;;;;;6.38;96.67;97422.41;5037359;28;20201;-69
2021/11/06 04:33:24;;;;;;;4.30;2.50;;;;;;;6.28;97.81;97422.31;5037521;28;20197;-68
2021/11/06 04:35:50;;;;;;;4.73;2.10;;;;;;;6.22;97.42;97425.44;5036690;28;20204;-69
2021/11/06 04:38:18;;;;;;;5.27;3.13;;;;;;;6.56;97.40;97421.75;5036718;28;20228;-69
2021/11/06 04:40:44;;;;;;;9.83;5.33;;;;;;;6.38;96.40;97425.84;5036826;28;20232;-69
2021/11/06 04:43:11;;;;;;;7.17;3.97;;;;;;;6.22;97.59;97433.28;5037462;28;20201;-68
2021/11/06 04:45:37;;;;;;;5.47;3.10;;;;;;;6.46;95.98;97433.91;5034286;28;20205;-67
2021/11/06 04:48:06;;;;;;;2.73;1.60;;;;;;;6.65;95.43;97432.31;5036815;28;20225;-69
2021/11/06 04:50:33;;;;;;;5.43;2.43;;;;;;;6.70;95.91;97432.75;5036793;28;20207;-69
2021/11/06 04:52:59;;;;;;;2.77;2.33;;;;;;;6.46;95.62;97427.88;5036771;28;20205;-69
2021/11/06 04:55:28;;;;;;;7.53;3.47;;;;;;;6.69;95.54;97432.91;5035964;28;20207;-69
2021/11/06 04:57:54;;;;;;;5.57;2.80;;;;;;;6.67;95.36;97429.59;5036466;28;20240;-69
2021/11/06 05:00:21;;;;;;;14.27;3.90;;;;;;;6.66;94.12;97430.53;5036647;28;20725;-69
2021/11/06 05:02:48;;;;;;;5.67;3.43;;;;;;;6.42;94.98;97435.13;5036584;28;20205;-69
2021/11/06 05:05:14;;;;;;;8.20;4.20;;;;;;;6.41;95.42;97436.06;5036846;28;20205;-68
2021/11/06 05:07:41;;;;;;;3.53;2.20;;;;;;;6.03;95.80;97442.69;5036276;28;20221;-69
2021/11/06 05:10:08;;;;;;;4.47;2.13;;;;;;;6.14;96.74;97438.25;5036256;28;20201;-69
2021/11/06 05:12:36;;;;;;;6.03;3.53;;;;;;;6.34;96.50;97439.28;5036401;28;20197;-69
2021/11/06 05:15:05;;;;;;;9.73;3.17;;;;;;;6.33;94.87;97440.28;5037398;28;20208;-69
2021/11/06 05:17:32;;;;;;;2.73;2.50;;;;;;;6.06;95.19;97448.50;5035654;28;20449;-68
2021/11/06 05:19:59;;;;;;;2.23;2.00;;;;;;;5.83;95.70;97448.66;5036255;28;20698;-68
2021/11/06 05:22:27;;;;;;;3.60;2.47;;;;;;;5.84;95.45;97446.84;5036532;28;20208;-69
2021/11/06 05:24:53;;;;;;;2.40;2.20;;;;;;;5.66;95.52;97445.63;5036488;28;20287;-68
2021/11/06 05:27:20;;;;;;;7.53;3.30;;;;;;;5.72;95.03;97447.78;5034961;28;20225;-68
2021/11/06 05:29:48;;;;;;;3.57;1.33;;;;;;;5.87;95.23;97438.75;5036544;28;20204;-68
2021/11/06 05:32:14;;;;;;;4.37;2.07;;;;;;;5.73;94.84;97441.63;5035978;28;20201;-69
2021/11/06 05:34:41;;;;;;;5.50;2.17;;;;;;;5.66;95.46;97446.44;5036341;28;20591;-68
2021/11/06 05:37:07;;;;;;;4.67;2.33;;;;;;;5.60;94.89;97449.56;5035789;28;20209;-69
2021/11/06 05:39:34;;;;;;;1.90;1.77;;;;;;;5.51;95.20;97445.03;5036392;28;20228;-68
2021/11/06 05:42:00;;;;;;;4.93;2.13;;;;;;;5.64;96.42;97447.56;5036416;28;20204;-69
2021/11/06 05:44:26;;;;;;;4.33;2.17;;;;;;;5.80;95.28;97448.06;5034254;28;20197;-69
2021/11/06 05:46:54;;;;;;;5.10;2.73;;;;;;;5.90;95.45;97443.78;5035451;28;20205;-67
2021/11/06 05:49:21;;;;;;;4.33;2.93;;;;;;;5.66;94.90;97446.44;5035382;28;21063;-68
2021/11/06 05:51:47;;;;;;;3.27;2.00;;;;;;;5.49;94.65;97449.53;5035982;28;20204;-69
2021/11/06 05:54:14;;;;;;;3.23;1.87;;;;;;;5.57;95.01;97460.22;5036503;28;20216;-68
2021/11/06 05:56:41;;;;;;;3.90;1.77;;;;;;;5.73;95.31;97452.06;5035368;28;20241;-68
2021/11/06 05:59:08;;;;;;;5.93;2.47;;;;;;;5.74;94.95;97444.09;5035760;28;20221;-67
2021/11/06 06:01:35;;;;;;;4.50;2.43;;;;;;;6.04;94.66;97450.41;5035911;28;20233;-69
2021/11/06 06:04:04;;;;;;;4.87;2.07;;;;;;;5.94;95.57;97446.03;5035890;28;20213;-68
2021/11/06 06:06:30;;;;;;;5.50;1.57;;;;;;;5.67;95.42;97447.31;5035442;28;20206;-69
2021/11/06 06:08:56;;;;;;;4.30;2.57;;;;;;;5.63;95.21;97456.34;5035686;28;20229;-68
2021/11/06 06:11:23;;;;;;;2.90;2.27;;;;;;;5.72;94.88;97448.59;5036450;28;20201;-68
2021/11/06 06:13:49;;;;;;;3.73;2.80;;;;;;;5.65;95.99;97455.28;5035726;28;20229;-69
2021/11/06 06:16:16;;;;;;;4.90;2.53;;;;;;;5.77;94.94;97448.31;5035000;28;20204;-68
2021/11/06 06:18:45;;;;;;;2.33;1.33;;;;;;;5.68;94.92;97455.03;5036177;28;20811;-70
2021/11/06 06:21:12;;;;;;;5.00;2.77;;;;;;;5.84;95.17;97465.16;5035541;28;21059;-70
2021/11/06 06:23:39;;;;;;;2.67;2.07;;;;;;;5.65;95.45;97460.50;5035649;28;20293;-70
2021/11/06 06:26:06;;;;;;;7.93;2.63;;;;;;;5.60;95.15;97467.00;5035918;28;20201;-70
2021/11/06 06:28:32;;;;;;;2.57;2.10;;;;;;;5.42;95.33;97475.44;5035972;28;20213;-69
2021/11/06 06:30:59;;;;;;;4.90;3.40;;;;;;;5.16;97.14;97474.78;5035271;28;20205;-68
2021/11/06 06:33:25;;;;;;;3.03;1.90;;;;;;;5.27;96.30;97474.81;5036425;28;20212;-68
2021/11/06 06:35:52;;;;;;;3.97;2.27;;;;;;;5.38;96.42;97471.38;5035097;28;20209;-70
2021/11/06 06:38:19;;;;;;;4.53;2.30;;;;;;;5.62;96.38;97480.81;5035671;28;20225;-69
2021/11/06 06:40:46;;;;;;;5.53;3.20;;;;;;;5.48;96.44;97483.63;5039159;28;20221;-67
2021/11/06 06:43:12;;;;;;;6.03;2.83;;;;;;;5.48;95.69;97487.06;5039587;28;20208;-69
2021/11/06 06:45:39;;;;;;;1.30;1.17;;;;;;;5.47;95.60;97485.44;5036262;28;20201;-68
2021/11/06 06:48:06;;;;;;;10.07;3.57;;;;;;;5.76;95.82;97485.84;5039429;28;20221;-68
2021/11/06 06:50:32;;;;;;;5.67;2.57;;;;;;;5.60;94.39;97494.00;5039153;28;20209;-66
2021/11/06 06:52:59;;;;;;;2.17;1.57;;;;;;;5.19;94.86;97500.66;5039106;28;20212;-69
2021/11/06 06:55:27;;;;;;;3.53;1.97;;;;;;;5.59;94.93;97496.75;5038895;28;20316;-67
2021/11/06 06:57:53;;;;;;;7.27;3.03;;;;;;;5.40;95.30;97503.44;5038687;28;20225;-69
2021/11/06 07:00:20;;;;;;;4.23;2.70;;;;;;;5.42;95.05;97510.22;5038954;28;20670;-68
2021/11/06 07:02:46;;;;;;;7.00;2.60;;;;;;;5.23;94.98;97512.56;5038724;28;20205;-68
2021/11/06 07:05:13;;;;;;;3.80;2.27;;;;;;;5.46;95.01;97503.84;5039059;28;20595;-69
2021/11/06 07:07:40;;;;;;;3.60;3.07;;;;;;;5.37;94.63;97507.13;5038229;28;20219;-69
2021/11/06 07:10:08;;;;;;;2.43;1.83;;;;;;;5.45;94.89;97520.47;5039073;28;20197;-68
2021/11/06 07:12:36;;;;;;;3.87;1.87;;;;;;;5.68;95.21;97532.66;5038529;28;20209;-67
2021/11/06 07:15:03;;;;;;;6.77;3.43;;;;;;;5.70;94.83;97528.97;5038549;28;20204;-69
2021/11/06 07:17:30;;;;;;;6.43;2.10;;;;;;;5.46;94.75;97530.00;5038430;28;20433;-67
2021/11/06 07:19:56;;;;;;;5.03;2.70;;;;;;;5.53;95.05;97531.19;5038338;28;20271;-68
2021/11/06 07:22:23;;;;;;;2.90;1.97;;;;;;;5.61;94.89;97528.81;5038743;28;20201;-69
2021/11/06 07:24:49;;;;;;;3.23;2.67;;;;;;;5.75;93.64;97536.47;5038861;28;20200;-68
2021/11/06 07:27:15;;;;;;;10.23;4.23;;;;;;;5.73;93.82;97541.00;5037825;28;20209;-69
2021/11/06 07:29:43;;;;;;;7.37;2.30;;;;;;;5.86;93.89;97539.97;5038200;28;20617;-68
2021/11/06 07:32:10;;;;;;;2.00;1.73;;;;;;;5.61;94.50;97547.13;5038772;28;20216;-68
2021/11/06 07:34:37;;;;;;;1.30;1.20;;;;;;;5.61;94.41;97547.13;5038364;28;20204;-68
2021/11/06 07:37:04;;;;;;;6.47;2.90;;;;;;;5.92;94.62;97546.50;5037216;28;20204;-68
2021/11/06 07:39:31;;;;;;;11.80;3.83;;;;;;;5.69;96.16;97550.84;5038653;28;20217;-68
2021/11/06 07:41:57;;;;;;;6.80;3.03;;;;;;;5.71;96.01;97548.09;5038107;28;20225;-68
2021/11/06 07:44:24;;;;;;;7.30;3.13;;;;;;;5.79;94.59;97551.84;5035251;28;20208;-68
2021/11/06 07:46:51;;;;;;;2.23;1.43;;;;;;;6.03;95.00;97559.59;5037654;28;20216;-68
2021/11/06 07:49:18;;;;;;;8.67;3.93;;;;;;;5.85;94.13;97550.53;5039128;28;20224;-68
2021/11/06 07:51:45;;;;;;;7.97;3.50;;;;;;;6.01;93.98;97551.03;5036910;28;20197;-68
2021/11/06 07:54:12;;;;;;;5.90;2.47;;;;;;;6.09;94.59;97554.72;5037633;28;20212;-68
2021/11/06 07:56:38;;;;;;;6.30;2.73;;;;;;;6.11;94.19;97556.28;5037362;28;20209;-68
2021/11/06 07:59:05;;;;;;;6.30;2.17;;;;;;;6.35;94.99;97557.00;5038088;28;20304;-68
2021/11/06 08:01:32;;;;;;;2.20;2.00;;;;;;;6.40;95.23;97548.78;5036922;28;21106;-68
2021/11/06 08:04:00;;;;;;;4.30;1.93;;;;;;;6.62;94.16;97546.97;5038233;28;20197;-68
2021/11/06 08:06:26;;;;;;;3.83;2.53;;;;;;;6.43;94.15;97544.13;5037031;28;20716;-68
2021/11/06 08:08:53;;;;;;;19.13;4.20;;;;;;;6.45;92.58;97546.63;5036982;28;20232;-68
2021/11/06 08:11:19;;;;;;;5.07;3.33;;;;;;;6.60;92.93;97540.19;5037495;28;20748;-68
2021/11/06 08:13:46;;;;;;;8.07;3.83;;;;;;;6.46;93.44;97543.06;5037514;28;20228;-68
2021/11/06 08:16:12;;;;;;;7.03;3.33;;;;;;;6.40;93.25;97549.63;5036808;28;20197;-68
2021/11/06 08:18:38;;;;;;;3.53;2.47;;;;;;;6.04;93.72;97557.69;5037656;28;20213;-68
2021/11/06 08:21:07;;;;;;;12.57;3.93;;;;;;;6.71;94.81;97548.88;5037571;28;20225;-68
2021/11/06 08:23:33;;;;;;;11.93;3.40;;;;;;;6.59;94.27;97552.44;5036966;28;20554;-68
2021/11/06 08:26:00;;;;;;;5.77;2.97;;;;;;;6.83;93.70;97555.75;5036525;28;20204;-68
2021/11/06 08:28:27;;;;;;;7.77;3.47;;;;;;;6.95;93.31;97541.66;5037336;28;20638;-68
2021/11/06 08:30:53;;;;;;;9.97;3.77;;;;;;;6.91;93.01;97546.31;5037488;28;21291;-68
2021/11/06 08:33:20;;;;;;;11.00;4.57;;;;;;;6.76;93.21;97552.78;5037356;28;20290;-68
2021/11/06 08:35:46;;;;;;;13.37;4.93;;;;;;;6.89;92.58;97552.63;5036353;28;20203;-68
2021/11/06 08:38:14;;;;;;;8.37;4.30;;;;;;;7.35;92.79;97546.97;5037199;28;20217;-68
2021/11/06 08:40:41;;;;;;;5.30;2.63;;;;;;;7.02;92.97;97553.31;5037158;28;20236;-68
2021/11/06 08:43:08;;;;;;;7.17;3.60;;;;;;;6.88;94.70;97550.97;5036607;28;20201;-68
2021/11/06 08:45:34;;;;;;;11.10;4.80;;;;;;;6.79;94.67;97562.19;5034265;28;20208;-68
2021/11/06 08:48:01;;;;;;;3.23;2.63;;;;;;;6.69;95.28;97561.25;5036811;28;20224;-68
2021/11/06 08:50:29;;;;;;;3.27;1.53;;;;;;;6.76;95.67;97559.81;5036818;28;20205;-68
2021/11/06 08:52:57;;;;;;;3.47;1.93;;;;;;;6.87;94.83;97559.78;5036680;28;20211;-68
2021/11/06 08:55:26;;;;;;;9.93;3.70;;;;;;;7.03;95.45;97557.59;5036434;28;20287;-68
2021/11/06 08:57:53;;;;;;;4.43;2.37;;;;;;;6.99;94.28;97558.81;5036534;28;20225;-68
2021/11/06 09:00:26;;;;;;;9.50;3.50;;;;;;;7.35;94.42;97556.66;5037462;28;20212;-68
2021/11/06 09:02:53;;;;;;;10.70;3.90;;;;;;;6.95;94.43;97552.97;5036487;28;20588;-68
2021/11/06 09:05:20;;;;;;;5.07;2.77;;;;;;;7.05;94.29;97555.69;5036521;28;20237;-68
2021/11/06 09:07:47;;;;;;;18.47;3.50;;;;;;;7.34;93.82;97555.81;5035747;28;21152;-68
2021/11/06 09:10:17;;;;;;;8.60;3.43;;;;;;;7.27;93.47;97554.66;5037290;28;20197;-68
2021/11/06 09:12:45;;;;;;;4.03;2.30;;;;;;;7.44;93.74;97556.72;5036782;28;20200;-68
2021/11/06 09:15:12;;;;;;;7.87;4.13;;;;;;;7.28;94.86;97555.50;5036263;28;20212;-68
2021/11/06 09:17:38;;;;;;;8.03;4.13;;;;;;;7.21;94.66;97558.75;5035890;28;20217;-68
2021/11/06 09:20:06;;;;;;;4.60;3.50;;;;;;;7.47;95.00;97551.22;5036364;28;20564;-68
2021/11/06 09:22:33;;;;;;;8.57;4.20;;;;;;;7.38;94.93;97554.63;5036653;28;20536;-68
2021/11/06 09:24:59;;;;;;;6.47;3.40;;;;;;;7.22;95.03;97557.75;5036773;28;20224;-68
2021/11/06 09:27:26;;;;;;;6.17;2.77;;;;;;;7.26;95.18;97560.03;5035732;28;20312;-68
2021/11/06 09:29:53;;;;;;;14.67;3.77;;;;;;;7.73;95.25;97556.94;5036330;28;20208;-68
2021/11/06 09:32:21;;;;;;;10.87;2.90;;;;;;;7.62;94.87;97552.56;5036328;28;20197;-68
2021/11/06 09:34:48;;;;;;;9.83;3.93;;;;;;;7.51;94.98;97557.88;5036531;28;20212;-68
2021/11/06 09:37:15;;;;;;;7.50;3.30;;;;;;;7.43;96.66;97555.06;5035506;28;20208;-68
2021/11/06 09:39:42;;;;;;;10.23;3.70;;;;;;;7.55;94.51;97548.81;5036471;28;20206;-68
2021/11/06 09:42:08;;;;;;;11.17;6.93;;;;;;;7.11;96.30;97545.53;5036536;28;20224;-68
2021/11/06 09:44:36;;;;;;;5.57;3.10;;;;;;;7.58;96.08;97553.78;5033539;28;20208;-68
2021/11/06 09:47:10;;;;;;;9.10;4.37;;;;;;;7.55;97.10;97546.19;5034416;28;20201;-68
2021/11/06 09:49:36;;;;;;;9.90;4.63;;;;;;;7.38;95.79;97549.38;5035240;28;20209;-68
2021/11/06 09:52:03;;;;;;;7.27;4.47;;;;;;;7.24;96.87;97554.06;5035952;28;20200;-68
2021/11/06 09:54:30;;;;;;;19.17;5.97;;;;;;;7.58;97.21;97542.47;5036147;28;20204;-68
2021/11/06 09:56:57;;;;;;;14.60;4.47;;;;;;;7.87;95.97;97552.19;5035701;28;20222;-68
2021/11/06 09:59:24;;;;;;;19.07;4.03;;;;;;;7.93;94.43;97554.31;5035954;28;20728;-68
2021/11/06 10:01:50;;;;;;;16.17;6.80;;;;;;;7.92;93.51;97557.91;5035743;28;20228;-68
2021/11/06 10:04:18;;;;;;;14.50;5.03;;;;;;;8.29;93.18;97551.22;5036745;28;20208;-68
2021/11/06 10:06:46;;;;;;;14.33;6.33;;;;;;;8.41;92.45;97555.41;5035648;28;20607;-68
2021/11/06 10:09:14;;;;;;;12.23;4.40;;;;;;;8.56;92.84;97555.75;5035659;28;20221;-68
2021/11/06 10:11:45;;;;;;;13.40;4.80;;;;;;;8.41;93.80;97563.28;5035826;28;20205;-68
2021/11/06 10:14:16;;;;;;;11.93;4.43;;;;;;;8.60;93.13;97557.16;5037509;28;20199;-68
2021/11/06 10:16:44;;;;;;;17.17;5.30;;;;;;;8.62;92.36;97559.66;5038946;28;20205;-68
2021/11/06 10:19:13;;;;;;;5.67;2.97;;;;;;;8.53;92.81;97560.44;5039617;28;20221;-68
2021/11/06 10:21:43;;;;;;;10.50;4.10;;;;;;;8.52;93.04;97558.78;5039920;28;20224;-68
2021/11/06 10:24:10;;;;;;;12.97;6.20;;;;;;;8.24;93.78;97558.66;5039591;28;20202;-68
2021/11/06 10:26:37;;;;;;;12.17;3.97;;;;;;;8.54;92.40;97554.19;5038543;28;20201;-68
2021/11/06 10:29:07;;;;;;;11.77;6.93;;;;;;;8.65;93.84;97547.06;5039610;28;20308;-68
2021/11/06 10:31:35;;;;;;;18.43;6.53;;;;;;;8.67;92.04;97547.75;5039712;28;20201;-68
2021/11/06 10:34:11;;;;;;;6.00;3.77;;;;;;;8.85;92.51;97551.41;5039296;28;20705;-68
2021/11/06 10:36:38;;;;;;;16.77;5.70;;;;;;;8.63;91.58;97548.16;5038832;28;20638;-68
2021/11/06 10:39:09;;;;;;;9.77;6.03;;;;;;;8.97;92.58;97537.19;5039305;28;20579;-68
2021/11/06 10:41:38;;;;;;;11.50;5.77;;;;;;;8.86;91.32;97528.56;5039225;28;20225;-68
2021/11/06 10:44:06;;;;;;;17.80;4.37;;;;;;;8.66;92.83;97534.78;5037382;28;21099;-68
2021/11/06 10:46:33;;;;;;;13.33;6.33;;;;;;;8.41;92.98;97535.22;5038954;28;20212;-68
2021/11/06 10:49:02;;;;;;;16.47;4.77;;;;;;;8.84;91.48;97520.81;5038430;28;20224;-68
2021/11/06 10:51:29;;;;;;;12.53;4.93;;;;;;;8.65;92.02;97528.66;5039150;28;20225;-68
2021/11/06 10:53:58;;;;;;;9.80;4.30;;;;;;;8.75;90.42;97520.81;5039778;28;20633;-68
2021/11/06 10:56:29;;;;;;;16.53;6.07;;;;;;;9.15;89.21;97517.13;5038409;28;20198;-68
2021/11/06 10:58:57;;;;;;;22.60;6.83;;;;;;;8.96;90.85;97519.75;5039284;28;20225;-68
2021/11/06 11:01:26;;;;;;;14.03;5.83;;;;;;;8.99;90.00;97524.75;5039157;28;20229;-68
2021/11/06 11:03:59;;;;;;;8.30;5.13;;;;;;;9.07;91.28;97513.53;5039378;28;20209;-68
2021/11/06 11:06:32;;;;;;;16.30;4.23;;;;;;;8.84;91.89;97517.38;5038499;28;20202;-68
2021/11/06 11:08:59;;;;;;;21.40;6.57;;;;;;;8.76;90.88;97502.28;5035927;28;20225;-68
2021/11/06 11:11:30;;;;;;;16.60;4.27;;;;;;;9.32;91.59;97498.06;5038145;28;20197;-68
2021/11/06 11:13:59;;;;;;;12.30;5.53;;;;;;;9.03;91.73;97499.00;5038621;28;21156;-68
2021/11/06 11:16:26;;;;;;;15.00;6.70;;;;;;;8.71;91.84;97496.59;5038448;28;20201;-68
2021/11/06 11:18:54;;;;;;;14.57;4.17;;;;;;;9.41;90.30;97491.97;5038425;28;20225;-68
2021/11/06 11:21:25;;;;;;;16.47;5.03;;;;;;;9.38;90.38;97486.94;5038076;28;20229;-68
2021/11/06 11:23:54;;;;;;;18.77;5.70;;;;;;;9.63;90.87;97487.19;5039604;28;20213;-68
2021/11/06 11:26:23;;;;;;;12.63;4.47;;;;;;;9.53;89.53;97481.13;5036733;28;20296;-68
2021/11/06 11:28:52;;;;;;;14.90;4.80;;;;;;;9.66;89.00;97470.31;5037403;28;20239;-68
2021/11/06 11:31:19;;;;;;;16.20;6.07;;;;;;;9.77;88.09;97477.06;5038339;28;20574;-68
2021/11/06 11:33:46;;;;;;;11.53;4.60;;;;;;;9.68;88.83;97468.38;5038475;28;20692;-68
2021/11/06 11:36:15;;;;;;;19.53;6.60;;;;;;;9.54;90.40;97471.44;5037630;28;20201;-68
2021/11/06 11:38:42;;;;;;;13.17;5.23;;;;;;;9.52;88.48;97471.59;5038205;28;20221;-69